sensor_id;sensor_type;location;lat;lon;timestamp;pressure;altitude;pressure_sealevel;temperature;humidity
30421;BME280;17218;54.070;10.012;2023-08-06T00:02:12;100581.22;;;17.89;100.00
30421;BME280;17218;54.070;10.012;2023-08-06T00:04:38;100586.59;;;17.86;100.00
30421;BME280;17218;54.070;10.012;2023-08-06T00:07:05;100577.03;;;17.85;100.00
30421;BME280;17218;54.070;10.012;2023-08-06T00:09:31;100570.88;;;17.86;100.00
30421;BME280;17218;54.070;10.012;2023-08-06T00:11:58;100573.50;;;17.86;100.00
30421;BME280;17218;54.070;10.012;2023-08-06T00:14:24;100558.88;;;17.80;100.00
30421;BME280;17218;54.070;10.012;2023-08-06T00:16:52;100560.72;;;17.78;100.00
30421;BME280;17218;54.070;10.012;2023-08-06T00:19:19;100564.19;;;17.79;100.00
30421;BME280;17218;54.070;10.012;2023-08-06T00:21:45;100556.34;;;17.79;100.00
30421;BME280;17218;54.070;10.012;2023-08-06T00:24:12;100564.66;;;17.66;100.00
30421;BME280;17218;54.070;10.012;2023-08-06T00:26:39;100572.84;;;17.58;100.00
30421;BME280;17218;54.070;10.012;2023-08-06T00:29:05;100567.63;;;17.58;100.00
30421;BME280;17218;54.070;10.012;2023-08-06T00:31:32;100563.28;;;17.57;100.00
30421;BME280;17218;54.070;10.012;2023-08-06T00:33:59;100570.22;;;17.58;100.00
30421;BME280;17218;54.070;10.012;2023-08-06T00:36:26;100564.25;;;17.55;100.00
30421;BME280;17218;54.070;10.012;2023-08-06T00:38:52;100575.56;;;17.55;100.00
30421;BME280;17218;54.070;10.012;2023-08-06T00:41:20;100571.31;;;17.52;100.00
30421;BME280;17218;54.070;10.012;2023-08-06T00:43:47;100575.63;;;17.53;100.00
30421;BME280;17218;54.070;10.012;2023-08-06T00:46:13;100575.53;;;17.57;100.00
30421;BME280;17218;54.070;10.012;2023-08-06T00:48:40;100568.63;;;17.54;100.00
30421;BME280;17218;54.070;10.012;2023-08-06T00:51:09;100576.63;;;17.51;100.00
30421;BME280;17218;54.070;10.012;2023-08-06T00:53:37;100572.34;;;17.48;100.00
30421;BME280;17218;54.070;10.012;2023-08-06T00:56:05;100580.22;;;17.48;100.00
30421;BME280;17218;54.070;10.012;2023-08-06T00:58:33;100568.88;;;17.48;100.00
30421;BME280;17218;54.070;10.012;2023-08-06T01:01:00;100569.78;;;17.47;100.00
30421;BME280;17218;54.070;10.012;2023-08-06T01:03:26;100562.84;;;17.46;100.00
30421;BME280;17218;54.070;10.012;2023-08-06T01:05:53;100563.09;;;17.39;100.00
30421;BME280;17218;54.070;10.012;2023-08-06T01:08:30;100561.22;;;17.43;100.00
30421;BME280;17218;54.070;10.012;2023-08-06T01:11:11;100554.44;;;17.37;100.00
30421;BME280;17218;54.070;10.012;2023-08-06T01:13:42;100536.91;;;17.39;100.00
30421;BME280;17218;54.070;10.012;2023-08-06T01:16:15;100533.22;;;17.45;100.00
30421;BME280;17218;54.070;10.012;2023-08-06T01:18:41;100523.69;;;17.43;100.00
30421;BME280;17218;54.070;10.012;2023-08-06T01:21:13;100525.22;;;17.48;100.00
30421;BME280;17218;54.070;10.012;2023-08-06T01:23:40;100523.47;;;17.49;100.00
30421;BME280;17218;54.070;10.012;2023-08-06T01:26:11;100519.13;;;17.48;100.00
30421;BME280;17218;54.070;10.012;2023-08-06T01:28:44;100518.22;;;17.49;100.00
30421;BME280;17218;54.070;10.012;2023-08-06T01:31:16;100528.25;;;17.37;100.00
30421;BME280;17218;54.070;10.012;2023-08-06T01:33:45;100524.97;;;17.32;100.00
30421;BME280;17218;54.070;10.012;2023-08-06T01:36:15;100525.28;;;17.24;100.00
30421;BME280;17218;54.070;10.012;2023-08-06T01:38:43;100522.72;;;17.23;100.00
30421;BME280;17218;54.070;10.012;2023-08-06T01:41:09;100507.88;;;17.23;100.00
30421;BME280;17218;54.070;10.012;2023-08-06T01:43:36;100506.09;;;17.24;100.00
30421;BME280;17218;54.070;10.012;2023-08-06T01:46:02;100503.53;;;17.22;100.00
30421;BME280;17218;54.070;10.012;2023-08-06T01:48:29;100499.09;;;17.24;100.00
30421;BME280;17218;54.070;10.012;2023-08-06T01:50:55;100490.38;;;17.24;100.00
30421;BME280;17218;54.070;10.012;2023-08-06T01:53:23;100496.41;;;17.26;100.00
30421;BME280;17218;54.070;10.012;2023-08-06T01:55:50;100489.28;;;17.29;100.00
30421;BME280;17218;54.070;10.012;2023-08-06T01:58:16;100485.06;;;17.27;100.00
30421;BME280;17218;54.070;10.012;2023-08-06T02:00:42;100490.28;;;17.27;100.00
30421;BME280;17218;54.070;10.012;2023-08-06T02:03:09;100485.94;;;17.26;100.00
30421;BME280;17218;54.070;10.012;2023-08-06T02:05:35;100482.53;;;17.24;100.00
30421;BME280;17218;54.070;10.012;2023-08-06T02:08:02;100484.25;;;17.25;100.00
30421;BME280;17218;54.070;10.012;2023-08-06T02:10:30;100479.03;;;17.25;100.00
30421;BME280;17218;54.070;10.012;2023-08-06T02:12:56;100483.47;;;17.23;100.00
30421;BME280;17218;54.070;10.012;2023-08-06T02:15:23;100482.06;;;17.14;100.00
30421;BME280;17218;54.070;10.012;2023-08-06T02:17:49;100479.56;;;17.09;100.00
30421;BME280;17218;54.070;10.012;2023-08-06T02:20:16;100479.56;;;17.09;100.00
30421;BME280;17218;54.070;10.012;2023-08-06T02:22:42;100478.47;;;17.16;100.00
30421;BME280;17218;54.070;10.012;2023-08-06T02:25:09;100470.66;;;17.15;100.00
30421;BME280;17218;54.070;10.012;2023-08-06T02:27:37;100477.81;;;17.10;100.00
30421;BME280;17218;54.070;10.012;2023-08-06T02:30:05;100463.00;;;17.09;100.00
30421;BME280;17218;54.070;10.012;2023-08-06T02:32:31;100460.38;;;17.10;100.00
30421;BME280;17218;54.070;10.012;2023-08-06T02:35:01;100451.47;;;17.16;100.00
30421;BME280;17218;54.070;10.012;2023-08-06T02:37:27;100454.00;;;17.17;100.00
30421;BME280;17218;54.070;10.012;2023-08-06T02:39:54;100445.34;;;17.15;100.00
30421;BME280;17218;54.070;10.012;2023-08-06T02:42:20;100449.81;;;17.13;100.00
30421;BME280;17218;54.070;10.012;2023-08-06T02:44:48;100442.00;;;17.12;100.00
30421;BME280;17218;54.070;10.012;2023-08-06T02:47:14;100446.31;;;17.13;100.00
30421;BME280;17218;54.070;10.012;2023-08-06T02:49:41;100437.44;;;17.17;100.00
30421;BME280;17218;54.070;10.012;2023-08-06T02:52:07;100447.97;;;17.15;100.00
30421;BME280;17218;54.070;10.012;2023-08-06T02:54:34;100444.66;;;17.10;100.00
30421;BME280;17218;54.070;10.012;2023-08-06T02:57:00;100434.28;;;17.07;100.00
30421;BME280;17218;54.070;10.012;2023-08-06T02:59:27;100425.50;;;17.10;100.00
30421;BME280;17218;54.070;10.012;2023-08-06T03:01:55;100430.69;;;17.11;100.00
30421;BME280;17218;54.070;10.012;2023-08-06T03:04:21;100436.78;;;17.12;100.00
30421;BME280;17218;54.070;10.012;2023-08-06T03:06:49;100433.47;;;17.07;100.00
30421;BME280;17218;54.070;10.012;2023-08-06T03:09:15;100441.41;;;17.03;100.00
30421;BME280;17218;54.070;10.012;2023-08-06T03:11:42;100439.78;;;17.01;100.00
30421;BME280;17218;54.070;10.012;2023-08-06T03:14:08;100437.63;;;16.88;100.00
30421;BME280;17218;54.070;10.012;2023-08-06T03:16:35;100441.16;;;16.87;100.00
30421;BME280;17218;54.070;10.012;2023-08-06T03:19:03;100431.63;;;16.86;100.00
30421;BME280;17218;54.070;10.012;2023-08-06T03:21:29;100443.13;;;16.82;100.00
30421;BME280;17218;54.070;10.012;2023-08-06T03:30:40;100436.34;;;16.76;100.00
30421;BME280;17218;54.070;10.012;2023-08-06T03:33:06;100426.63;;;16.80;100.00
30421;BME280;17218;54.070;10.012;2023-08-06T03:35:34;100428.28;;;16.83;100.00
30421;BME280;17218;54.070;10.012;2023-08-06T03:38:01;100419.38;;;16.87;100.00
30421;BME280;17218;54.070;10.012;2023-08-06T03:40:27;100421.16;;;16.86;100.00
30421;BME280;17218;54.070;10.012;2023-08-06T03:42:54;100412.47;;;16.86;100.00
30421;BME280;17218;54.070;10.012;2023-08-06T03:45:20;100412.47;;;16.86;100.00
30421;BME280;17218;54.070;10.012;2023-08-06T03:47:47;100415.16;;;16.84;100.00
30421;BME280;17218;54.070;10.012;2023-08-06T03:50:13;100407.22;;;16.86;100.00
30421;BME280;17218;54.070;10.012;2023-08-06T03:52:41;100395.69;;;16.91;100.00
30421;BME280;17218;54.070;10.012;2023-08-06T03:55:08;100404.47;;;16.89;100.00
30421;BME280;17218;54.070;10.012;2023-08-06T03:57:34;100409.72;;;16.89;100.00
30421;BME280;17218;54.070;10.012;2023-08-06T04:00:01;100402.06;;;16.84;100.00
30421;BME280;17218;54.070;10.012;2023-08-06T04:02:28;100403.69;;;16.87;100.00
30421;BME280;17218;54.070;10.012;2023-08-06T04:04:54;100392.34;;;16.88;100.00
30421;BME280;17218;54.070;10.012;2023-08-06T04:07:20;100393.06;;;16.91;100.00
30421;BME280;17218;54.070;10.012;2023-08-06T04:09:57;100384.06;;;16.99;100.00
30421;BME280;17218;54.070;10.012;2023-08-06T04:12:24;100392.75;;;16.99;100.00
30421;BME280;17218;54.070;10.012;2023-08-06T04:14:52;100384.84;;;17.01;100.00
30421;BME280;17218;54.070;10.012;2023-08-06T04:17:19;100388.25;;;17.03;100.00
30421;BME280;17218;54.070;10.012;2023-08-06T04:19:47;100381.25;;;17.03;100.00
30421;BME280;17218;54.070;10.012;2023-08-06T04:22:13;100386.59;;;17.00;100.00
30421;BME280;17218;54.070;10.012;2023-08-06T04:24:41;100380.41;;;17.03;100.00
30421;BME280;17218;54.070;10.012;2023-08-06T04:27:09;100377.66;;;17.06;100.00
30421;BME280;17218;54.070;10.012;2023-08-06T04:29:36;100385.50;;;17.06;100.00
30421;BME280;17218;54.070;10.012;2023-08-06T04:32:05;100377.66;;;17.06;100.00
30421;BME280;17218;54.070;10.012;2023-08-06T04:34:32;100387.25;;;17.05;100.00
30421;BME280;17218;54.070;10.012;2023-08-06T04:36:59;100390.91;;;17.01;100.00
30421;BME280;17218;54.070;10.012;2023-08-06T04:39:26;100389.34;;;16.97;100.00
30421;BME280;17218;54.070;10.012;2023-08-06T04:41:52;100397.13;;;16.99;100.00
30421;BME280;17218;54.070;10.012;2023-08-06T04:44:20;100399.69;;;17.00;100.00
30421;BME280;17218;54.070;10.012;2023-08-06T04:46:47;100393.59;;;17.00;100.00
30421;BME280;17218;54.070;10.012;2023-08-06T04:49:13;100394.53;;;16.99;100.00
30421;BME280;17218;54.070;10.012;2023-08-06T04:51:40;100396.16;;;17.01;100.00
30421;BME280;17218;54.070;10.012;2023-08-06T04:54:06;100402.00;;;17.08;100.00
30421;BME280;17218;54.070;10.012;2023-08-06T04:56:33;100408.84;;;17.12;100.00
30421;BME280;17218;54.070;10.012;2023-08-06T04:58:59;100408.88;;;17.11;100.00
30421;BME280;17218;54.070;10.012;2023-08-06T05:01:27;100404.50;;;17.11;100.00
30421;BME280;17218;54.070;10.012;2023-08-06T05:03:53;100405.38;;;17.12;100.00
30421;BME280;17218;54.070;10.012;2023-08-06T05:06:20;100402.78;;;17.10;100.00
30421;BME280;17218;54.070;10.012;2023-08-06T05:08:46;100392.28;;;17.12;100.00
30421;BME280;17218;54.070;10.012;2023-08-06T05:11:13;100398.47;;;17.09;100.00
30421;BME280;17218;54.070;10.012;2023-08-06T05:13:39;100401.03;;;17.11;100.00
30421;BME280;17218;54.070;10.012;2023-08-06T05:16:06;100396.59;;;17.13;100.00
30421;BME280;17218;54.070;10.012;2023-08-06T05:18:33;100402.78;;;17.10;100.00
30421;BME280;17218;54.070;10.012;2023-08-06T05:21:00;100407.88;;;17.15;100.00
30421;BME280;17218;54.070;10.012;2023-08-06T05:23:27;100402.47;;;17.20;100.00
30421;BME280;17218;54.070;10.012;2023-08-06T05:25:53;100397.09;;;17.23;100.00
30421;BME280;17218;54.070;10.012;2023-08-06T05:28:19;100403.19;;;17.23;100.00
30421;BME280;17218;54.070;10.012;2023-08-06T05:30:46;100397.81;;;17.26;100.00
30421;BME280;17218;54.070;10.012;2023-08-06T05:33:12;100395.06;;;17.29;100.00
30421;BME280;17218;54.070;10.012;2023-08-06T05:35:41;100395.84;;;17.32;100.00
30421;BME280;17218;54.070;10.012;2023-08-06T05:38:08;100400.19;;;17.33;100.00
30421;BME280;17218;54.070;10.012;2023-08-06T05:40:34;100394.81;;;17.36;100.00
30421;BME280;17218;54.070;10.012;2023-08-06T05:43:01;100400.78;;;17.39;100.00
30421;BME280;17218;54.070;10.012;2023-08-06T05:45:27;100401.50;;;17.43;100.00
30421;BME280;17218;54.070;10.012;2023-08-06T05:47:54;100400.47;;;17.47;100.00
30421;BME280;17218;54.070;10.012;2023-08-06T05:50:23;100391.63;;;17.50;100.00
30421;BME280;17218;54.070;10.012;2023-08-06T05:52:50;100397.78;;;17.49;100.00
30421;BME280;17218;54.070;10.012;2023-08-06T05:55:18;100404.63;;;17.51;100.00
30421;BME280;17218;54.070;10.012;2023-08-06T05:57:44;100388.75;;;17.56;100.00
30421;BME280;17218;54.070;10.012;2023-08-06T06:00:11;100399.16;;;17.58;100.00
30421;BME280;17218;54.070;10.012;2023-08-06T06:02:38;100396.41;;;17.61;100.00
30421;BME280;17218;54.070;10.012;2023-08-06T06:05:04;100400.59;;;17.65;100.00
30421;BME280;17218;54.070;10.012;2023-08-06T06:07:31;100401.44;;;17.66;100.00
30421;BME280;17218;54.070;10.012;2023-08-06T06:09:59;100403.00;;;17.70;100.00
30421;BME280;17218;54.070;10.012;2023-08-06T06:12:25;100397.50;;;17.76;100.00
30421;BME280;17218;54.070;10.012;2023-08-06T06:14:52;100391.41;;;17.75;100.00
30421;BME280;17218;54.070;10.012;2023-08-06T06:17:18;100391.31;;;17.79;100.00
30421;BME280;17218;54.070;10.012;2023-08-06T06:19:45;100385.84;;;17.83;100.00
30421;BME280;17218;54.070;10.012;2023-08-06T06:22:10;100385.66;;;17.88;100.00
30421;BME280;17218;54.070;10.012;2023-08-06T06:24:37;100392.34;;;17.95;100.00
30421;BME280;17218;54.070;10.012;2023-08-06T06:27:05;100394.88;;;17.97;100.00
30421;BME280;17218;54.070;10.012;2023-08-06T06:29:31;100399.19;;;17.98;100.00
30421;BME280;17218;54.070;10.012;2023-08-06T06:31:58;100408.97;;;17.94;100.00
30421;BME280;17218;54.070;10.012;2023-08-06T06:34:24;100398.34;;;17.97;100.00
30421;BME280;17218;54.070;10.012;2023-08-06T06:36:51;100398.28;;;17.99;100.00
30421;BME280;17218;54.070;10.012;2023-08-06T06:39:17;100395.53;;;18.02;100.00
30421;BME280;17218;54.070;10.012;2023-08-06T06:41:44;100407.69;;;18.03;100.00
30421;BME280;17218;54.070;10.012;2023-08-06T06:44:13;100405.75;;;18.08;100.00
30421;BME280;17218;54.070;10.012;2023-08-06T06:46:40;100399.50;;;18.11;100.00
30421;BME280;17218;54.070;10.012;2023-08-06T06:49:06;100400.25;;;18.15;100.00
30421;BME280;17218;54.070;10.012;2023-08-06T06:51:32;100398.41;;;18.17;100.00
30421;BME280;17218;54.070;10.012;2023-08-06T06:53:59;100401.81;;;18.19;100.00
30421;BME280;17218;54.070;10.012;2023-08-06T06:56:25;100399.13;;;18.20;100.00
30421;BME280;17218;54.070;10.012;2023-08-06T06:58:52;100391.06;;;18.25;100.00
30421;BME280;17218;54.070;10.012;2023-08-06T07:01:20;100390.91;;;18.28;100.00
30421;BME280;17218;54.070;10.012;2023-08-06T07:03:46;100381.28;;;18.29;100.00
30421;BME280;17218;54.070;10.012;2023-08-06T07:06:13;100389.00;;;18.32;100.00
30421;BME280;17218;54.070;10.012;2023-08-06T07:08:40;100386.16;;;18.36;100.00
30421;BME280;17218;54.070;10.012;2023-08-06T07:11:07;100385.88;;;18.43;100.00
30421;BME280;17218;54.070;10.012;2023-08-06T07:13:34;100381.63;;;18.40;100.00
30421;BME280;17218;54.070;10.012;2023-08-06T07:16:01;100382.56;;;18.39;100.00
30421;BME280;17218;54.070;10.012;2023-08-06T07:18:29;100384.13;;;18.43;100.00
30421;BME280;17218;54.070;10.012;2023-08-06T07:20:56;100386.75;;;18.43;100.00
30421;BME280;17218;54.070;10.012;2023-08-06T07:23:24;100384.94;;;18.44;100.00
30421;BME280;17218;54.070;10.012;2023-08-06T07:25:51;100384.94;;;18.44;100.00
30421;BME280;17218;54.070;10.012;2023-08-06T07:28:18;100390.19;;;18.44;100.00
30421;BME280;17218;54.070;10.012;2023-08-06T07:30:45;100390.06;;;18.47;100.00
30421;BME280;17218;54.070;10.012;2023-08-06T07:33:11;100387.38;;;18.48;100.00
30421;BME280;17218;54.070;10.012;2023-08-06T07:35:39;100394.13;;;18.54;100.00
30421;BME280;17218;54.070;10.012;2023-08-06T07:38:06;100389.50;;;18.59;100.00
30421;BME280;17218;54.070;10.012;2023-08-06T07:40:32;100385.91;;;18.62;100.00
30421;BME280;17218;54.070;10.012;2023-08-06T07:42:59;100390.03;;;18.66;100.00
30421;BME280;17218;54.070;10.012;2023-08-06T07:45:25;100392.47;;;18.71;100.00
30421;BME280;17218;54.070;10.012;2023-08-06T07:47:53;100390.56;;;18.75;100.00
30421;BME280;17218;54.070;10.012;2023-08-06T07:50:19;100382.75;;;18.73;100.00
30421;BME280;17218;54.070;10.012;2023-08-06T07:52:47;100380.84;;;18.77;100.00
30421;BME280;17218;54.070;10.012;2023-08-06T07:55:14;100384.38;;;18.76;100.00
30421;BME280;17218;54.070;10.012;2023-08-06T07:57:41;100385.31;;;18.75;100.00
30421;BME280;17218;54.070;10.012;2023-08-06T08:00:08;100385.50;;;18.70;100.00
30421;BME280;17218;54.070;10.012;2023-08-06T08:02:35;100389.06;;;18.69;100.00
30421;BME280;17218;54.070;10.012;2023-08-06T08:05:01;100388.13;;;18.70;100.00
30421;BME280;17218;54.070;10.012;2023-08-06T08:07:28;100385.38;;;18.73;100.00
30421;BME280;17218;54.070;10.012;2023-08-06T08:09:57;100378.22;;;18.77;100.00
30421;BME280;17218;54.070;10.012;2023-08-06T08:12:23;100378.22;;;18.77;100.00
30421;BME280;17218;54.070;10.012;2023-08-06T08:14:50;100378.06;;;18.80;100.00
30421;BME280;17218;54.070;10.012;2023-08-06T08:17:16;100370.81;;;18.85;100.00
30421;BME280;17218;54.070;10.012;2023-08-06T08:19:43;100381.09;;;18.90;100.00
30421;BME280;17218;54.070;10.012;2023-08-06T08:22:09;100383.66;;;18.91;100.00
30421;BME280;17218;54.070;10.012;2023-08-06T08:24:36;100381.94;;;18.90;100.00
30421;BME280;17218;54.070;10.012;2023-08-06T08:27:04;100385.50;;;18.89;100.00
30421;BME280;17218;54.070;10.012;2023-08-06T08:29:31;100382.50;;;18.97;100.00
30421;BME280;17218;54.070;10.012;2023-08-06T08:31:57;100381.28;;;19.04;100.00
30421;BME280;17218;54.070;10.012;2023-08-06T08:34:24;100382.53;;;19.15;100.00
30421;BME280;17218;54.070;10.012;2023-08-06T08:36:50;100373.28;;;19.25;100.00
30421;BME280;17218;54.070;10.012;2023-08-06T08:39:17;100376.56;;;19.30;100.00
30421;BME280;17218;54.070;10.012;2023-08-06T08:41:43;100373.06;;;19.30;100.00
30421;BME280;17218;54.070;10.012;2023-08-06T08:44:14;100372.00;;;19.34;100.00
30421;BME280;17218;54.070;10.012;2023-08-06T08:46:42;100368.19;;;19.40;100.00
30421;BME280;17218;54.070;10.012;2023-08-06T08:49:10;100375.69;;;19.48;100.00
30421;BME280;17218;54.070;10.012;2023-08-06T08:51:37;100371.97;;;19.52;100.00
30421;BME280;17218;54.070;10.012;2023-08-06T08:54:04;100370.13;;;19.54;100.00
30421;BME280;17218;54.070;10.012;2023-08-06T08:56:31;100364.53;;;19.60;100.00
30421;BME280;17218;54.070;10.012;2023-08-06T08:58:58;100367.72;;;19.67;100.00
30421;BME280;17218;54.070;10.012;2023-08-06T09:01:26;100371.88;;;19.71;100.00
30421;BME280;17218;54.070;10.012;2023-08-06T09:03:53;100363.66;;;19.77;100.00
30421;BME280;17218;54.070;10.012;2023-08-06T09:06:21;100363.34;;;19.84;100.00
30421;BME280;17218;54.070;10.012;2023-08-06T09:08:56;100356.66;;;19.94;100.00
30421;BME280;17218;54.070;10.012;2023-08-06T09:11:26;100358.72;;;20.05;100.00
30421;BME280;17218;54.070;10.012;2023-08-06T09:13:53;100358.03;;;20.19;100.00
30421;BME280;17218;54.070;10.012;2023-08-06T09:16:21;100357.50;;;20.29;100.00
30421;BME280;17218;54.070;10.012;2023-08-06T09:18:48;100354.63;;;20.33;100.00
30421;BME280;17218;54.070;10.012;2023-08-06T09:21:15;100349.13;;;20.38;100.00
30421;BME280;17218;54.070;10.012;2023-08-06T09:23:42;100357.63;;;20.43;100.00
30421;BME280;17218;54.070;10.012;2023-08-06T09:26:11;100359.31;;;20.44;100.00
30421;BME280;17218;54.070;10.012;2023-08-06T09:28:45;100351.31;;;20.46;100.00
30421;BME280;17218;54.070;10.012;2023-08-06T09:31:11;100352.94;;;20.48;100.00
30421;BME280;17218;54.070;10.012;2023-08-06T09:33:38;100355.50;;;20.50;100.00
30421;BME280;17218;54.070;10.012;2023-08-06T09:36:09;100354.22;;;20.41;100.00
30421;BME280;17218;54.070;10.012;2023-08-06T09:38:40;100352.69;;;20.37;100.00
30421;BME280;17218;54.070;10.012;2023-08-06T09:41:06;100355.63;;;20.31;100.00
30421;BME280;17218;54.070;10.012;2023-08-06T09:43:40;100351.25;;;20.31;100.00
30421;BME280;17218;54.070;10.012;2023-08-06T09:46:11;100352.19;;;20.30;100.00
30421;BME280;17218;54.070;10.012;2023-08-06T09:48:38;100346.97;;;20.29;100.00
30421;BME280;17218;54.070;10.012;2023-08-06T09:51:09;100354.88;;;20.29;100.00
30421;BME280;17218;54.070;10.012;2023-08-06T09:53:37;100350.56;;;20.28;100.00
30421;BME280;17218;54.070;10.012;2023-08-06T09:56:04;100347.06;;;20.27;100.00
30421;BME280;17218;54.070;10.012;2023-08-06T09:58:31;100352.34;;;20.27;100.00
30421;BME280;17218;54.070;10.012;2023-08-06T10:00:58;100348.03;;;20.26;100.00
30421;BME280;17218;54.070;10.012;2023-08-06T10:03:25;100341.03;;;20.25;100.00
30421;BME280;17218;54.070;10.012;2023-08-06T10:05:55;100340.03;;;20.28;100.00
30421;BME280;17218;54.070;10.012;2023-08-06T10:08:23;100346.94;;;20.30;100.00
30421;BME280;17218;54.070;10.012;2023-08-06T10:10:49;100346.84;;;20.32;100.00
30421;BME280;17218;54.070;10.012;2023-08-06T10:13:16;100338.78;;;20.35;100.00
30421;BME280;17218;54.070;10.012;2023-08-06T10:15:44;100337.59;;;20.24;100.00
30421;BME280;17218;54.070;10.012;2023-08-06T10:18:11;100339.63;;;20.19;100.00
30421;BME280;17218;54.070;10.012;2023-08-06T10:20:38;100344.94;;;20.18;100.00
30421;BME280;17218;54.070;10.012;2023-08-06T10:23:05;100329.84;;;20.21;100.00
30421;BME280;17218;54.070;10.012;2023-08-06T10:25:35;100335.88;;;20.23;100.00
30421;BME280;17218;54.070;10.012;2023-08-06T10:28:09;100330.88;;;20.19;100.00
30421;BME280;17218;54.070;10.012;2023-08-06T10:30:42;100329.03;;;20.21;100.00
30421;BME280;17218;54.070;10.012;2023-08-06T10:33:08;100322.81;;;20.22;100.00
30421;BME280;17218;54.070;10.012;2023-08-06T10:35:36;100320.00;;;20.25;100.00
30421;BME280;17218;54.070;10.012;2023-08-06T10:38:04;100320.88;;;20.25;100.00
30421;BME280;17218;54.070;10.012;2023-08-06T10:40:31;100327.06;;;20.24;100.00
30421;BME280;17218;54.070;10.012;2023-08-06T10:43:00;100327.16;;;20.23;100.00
30421;BME280;17218;54.070;10.012;2023-08-06T10:45:27;100329.03;;;20.21;100.00
30421;BME280;17218;54.070;10.012;2023-08-06T10:47:55;100318.75;;;20.16;100.00
30421;BME280;17218;54.070;10.012;2023-08-06T10:50:23;100318.22;;;20.09;100.00
30421;BME280;17218;54.070;10.012;2023-08-06T10:52:50;100316.75;;;20.03;100.00
30421;BME280;17218;54.070;10.012;2023-08-06T10:55:23;100316.06;;;20.00;100.00
30421;BME280;17218;54.070;10.012;2023-08-06T10:57:50;100313.53;;;19.98;100.00
30421;BME280;17218;54.070;10.012;2023-08-06T11:00:18;100311.66;;;20.00;100.00
30421;BME280;17218;54.070;10.012;2023-08-06T11:02:46;100313.44;;;20.00;100.00
30421;BME280;17218;54.070;10.012;2023-08-06T11:05:13;100297.66;;;20.00;100.00
30421;BME280;17218;54.070;10.012;2023-08-06T11:07:39;100302.06;;;19.99;100.00
30421;BME280;17218;54.070;10.012;2023-08-06T11:10:08;100303.78;;;20.00;100.00
30421;BME280;17218;54.070;10.012;2023-08-06T11:12:35;100301.25;;;19.99;100.00
30421;BME280;17218;54.070;10.012;2023-08-06T11:15:02;100297.59;;;20.01;100.00
30421;BME280;17218;54.070;10.012;2023-08-06T11:17:32;100291.31;;;20.04;100.00
30421;BME280;17218;54.070;10.012;2023-08-06T11:19:59;100293.91;;;20.06;100.00
30421;BME280;17218;54.070;10.012;2023-08-06T11:22:26;100289.59;;;20.03;100.00
30421;BME280;17218;54.070;10.012;2023-08-06T11:24:53;100284.34;;;20.03;100.00
30421;BME280;17218;54.070;10.012;2023-08-06T11:27:19;100285.13;;;20.05;100.00
30421;BME280;17218;54.070;10.012;2023-08-06T11:29:46;100288.69;;;20.04;100.00
30421;BME280;17218;54.070;10.012;2023-08-06T11:32:12;100284.44;;;20.01;100.00
30421;BME280;17218;54.070;10.012;2023-08-06T11:34:40;100281.97;;;19.98;100.00
30421;BME280;17218;54.070;10.012;2023-08-06T11:37:07;100285.38;;;20.00;100.00
30421;BME280;17218;54.070;10.012;2023-08-06T11:39:34;100288.84;;;20.01;100.00
30421;BME280;17218;54.070;10.012;2023-08-06T11:42:03;100274.09;;;19.98;100.00
30421;BME280;17218;54.070;10.012;2023-08-06T11:44:31;100273.16;;;19.99;100.00
30421;BME280;17218;54.070;10.012;2023-08-06T11:46:58;100274.19;;;19.97;100.00
30421;BME280;17218;54.070;10.012;2023-08-06T11:49:44;100279.34;;;19.98;100.00
30421;BME280;17218;54.070;10.012;2023-08-06T11:52:16;100271.38;;;20.00;100.00
30421;BME280;17218;54.070;10.012;2023-08-06T11:54:59;100271.38;;;20.00;100.00
30421;BME280;17218;54.070;10.012;2023-08-06T11:57:26;100271.38;;;20.00;100.00
30421;BME280;17218;54.070;10.012;2023-08-06T11:59:53;100269.63;;;20.00;100.00
30421;BME280;17218;54.070;10.012;2023-08-06T12:02:21;100267.66;;;20.04;100.00
30421;BME280;17218;54.070;10.012;2023-08-06T12:05:01;100268.75;;;20.00;100.00
30421;BME280;17218;54.070;10.012;2023-08-06T12:07:30;100268.56;;;20.03;100.00
30421;BME280;17218;54.070;10.012;2023-08-06T12:09:57;100269.44;;;20.03;100.00
30421;BME280;17218;54.070;10.012;2023-08-06T12:12:25;100261.56;;;20.03;100.00
30421;BME280;17218;54.070;10.012;2023-08-06T12:14:51;100262.41;;;20.04;100.00
30421;BME280;17218;54.070;10.012;2023-08-06T12:17:18;100259.72;;;20.06;100.00
30421;BME280;17218;54.070;10.012;2023-08-06T12:19:45;100250.94;;;20.05;100.00
30421;BME280;17218;54.070;10.012;2023-08-06T12:22:14;100256.00;;;20.10;100.00
30421;BME280;17218;54.070;10.012;2023-08-06T12:24:41;100254.13;;;20.12;100.00
30421;BME280;17218;54.070;10.012;2023-08-06T12:27:07;100252.00;;;20.19;100.00
30421;BME280;17218;54.070;10.012;2023-08-06T12:29:34;100248.09;;;20.26;100.00
30421;BME280;17218;54.070;10.012;2023-08-06T12:32:00;100247.00;;;20.30;100.00
30421;BME280;17218;54.070;10.012;2023-08-06T12:34:27;100254.94;;;20.29;100.00
30421;BME280;17218;54.070;10.012;2023-08-06T12:36:53;100240.78;;;20.31;100.00
30421;BME280;17218;54.070;10.012;2023-08-06T12:39:21;100243.16;;;20.36;100.00